sensor_id;sensor_type;location;lat;lon;timestamp;P1;durP1;ratioP1;P2;durP2;ratioP2
66546;SDS011;53400;50.364;14.874;2023-09-08T00:00:37;10.40;;;7.32;;
66546;SDS011;53400;50.364;14.874;2023-09-08T00:03:23;10.50;;;7.05;;
66546;SDS011;53400;50.364;14.874;2023-09-08T00:05:49;10.98;;;7.18;;
66546;SDS011;53400;50.364;14.874;2023-09-08T00:08:17;11.60;;;7.22;;
66546;SDS011;53400;50.364;14.874;2023-09-08T00:10:43;10.68;;;7.90;;
66546;SDS011;53400;50.364;14.874;2023-09-08T00:13:09;11.48;;;7.32;;
66546;SDS011;53400;50.364;14.874;2023-09-08T00:15:34;10.50;;;7.68;;
66546;SDS011;53400;50.364;14.874;2023-09-08T00:18:01;10.13;;;7.38;;
66546;SDS011;53400;50.364;14.874;2023-09-08T00:20:26;11.48;;;7.88;;
66546;SDS011;53400;50.364;14.874;2023-09-08T00:22:52;11.63;;;7.43;;
66546;SDS011;53400;50.364;14.874;2023-09-08T00:25:20;11.60;;;8.00;;
66546;SDS011;53400;50.364;14.874;2023-09-08T00:27:46;10.70;;;7.55;;
66546;SDS011;53400;50.364;14.874;2023-09-08T00:30:12;11.93;;;7.57;;
66546;SDS011;53400;50.364;14.874;2023-09-08T00:32:38;11.65;;;7.38;;
66546;SDS011;53400;50.364;14.874;2023-09-08T00:35:05;9.57;;;7.22;;
66546;SDS011;53400;50.364;14.874;2023-09-08T00:37:35;12.07;;;7.55;;
66546;SDS011;53400;50.364;14.874;2023-09-08T00:40:01;10.25;;;7.55;;
66546;SDS011;53400;50.364;14.874;2023-09-08T00:42:29;11.27;;;7.78;;
66546;SDS011;53400;50.364;14.874;2023-09-08T00:44:54;11.40;;;7.82;;
66546;SDS011;53400;50.364;14.874;2023-09-08T00:47:21;10.68;;;7.63;;
66546;SDS011;53400;50.364;14.874;2023-09-08T00:49:48;12.15;;;7.90;;
66546;SDS011;53400;50.364;14.874;2023-09-08T00:52:16;12.00;;;7.55;;
66546;SDS011;53400;50.364;14.874;2023-09-08T00:54:42;10.13;;;7.55;;
66546;SDS011;53400;50.364;14.874;2023-09-08T00:57:09;12.30;;;7.65;;
66546;SDS011;53400;50.364;14.874;2023-09-08T00:59:36;11.77;;;7.60;;
66546;SDS011;53400;50.364;14.874;2023-09-08T01:02:03;12.43;;;7.95;;
66546;SDS011;53400;50.364;14.874;2023-09-08T01:04:30;10.65;;;7.78;;
66546;SDS011;53400;50.364;14.874;2023-09-08T01:06:56;11.38;;;8.15;;
66546;SDS011;53400;50.364;14.874;2023-09-08T01:09:23;11.82;;;8.18;;
66546;SDS011;53400;50.364;14.874;2023-09-08T01:11:50;12.80;;;8.15;;
66546;SDS011;53400;50.364;14.874;2023-09-08T01:14:17;10.48;;;7.95;;
66546;SDS011;53400;50.364;14.874;2023-09-08T01:16:45;10.57;;;7.97;;
66546;SDS011;53400;50.364;14.874;2023-09-08T01:19:12;10.60;;;7.93;;
66546;SDS011;53400;50.364;14.874;2023-09-08T01:21:47;11.23;;;8.10;;
66546;SDS011;53400;50.364;14.874;2023-09-08T01:24:31;11.95;;;8.60;;
66546;SDS011;53400;50.364;14.874;2023-09-08T01:27:14;10.73;;;7.85;;
66546;SDS011;53400;50.364;14.874;2023-09-08T01:29:42;12.05;;;8.60;;
66546;SDS011;53400;50.364;14.874;2023-09-08T01:32:09;10.93;;;8.00;;
66546;SDS011;53400;50.364;14.874;2023-09-08T01:34:36;11.23;;;8.05;;
66546;SDS011;53400;50.364;14.874;2023-09-08T01:37:06;11.27;;;8.35;;
66546;SDS011;53400;50.364;14.874;2023-09-08T01:39:32;10.27;;;8.43;;
66546;SDS011;53400;50.364;14.874;2023-09-08T01:41:58;11.02;;;8.10;;
66546;SDS011;53400;50.364;14.874;2023-09-08T01:44:25;11.40;;;8.60;;
66546;SDS011;53400;50.364;14.874;2023-09-08T01:46:52;11.90;;;8.35;;
66546;SDS011;53400;50.364;14.874;2023-09-08T01:49:22;13.27;;;8.48;;
66546;SDS011;53400;50.364;14.874;2023-09-08T01:51:48;14.10;;;9.02;;
66546;SDS011;53400;50.364;14.874;2023-09-08T01:54:13;10.57;;;8.30;;
66546;SDS011;53400;50.364;14.874;2023-09-08T01:56:40;12.20;;;8.60;;
66546;SDS011;53400;50.364;14.874;2023-09-08T01:59:05;12.43;;;8.68;;
66546;SDS011;53400;50.364;14.874;2023-09-08T02:01:33;14.30;;;9.38;;
66546;SDS011;53400;50.364;14.874;2023-09-08T02:03:58;12.85;;;8.65;;
66546;SDS011;53400;50.364;14.874;2023-09-08T02:06:25;11.98;;;8.60;;
66546;SDS011;53400;50.364;14.874;2023-09-08T02:08:50;12.43;;;8.57;;
66546;SDS011;53400;50.364;14.874;2023-09-08T02:11:16;12.20;;;9.10;;
66546;SDS011;53400;50.364;14.874;2023-09-08T02:13:42;13.18;;;9.20;;
66546;SDS011;53400;50.364;14.874;2023-09-08T02:16:12;12.70;;;9.70;;
66546;SDS011;53400;50.364;14.874;2023-09-08T02:18:39;12.13;;;8.38;;
66546;SDS011;53400;50.364;14.874;2023-09-08T02:21:06;13.00;;;8.93;;
66546;SDS011;53400;50.364;14.874;2023-09-08T02:23:31;13.50;;;9.90;;
66546;SDS011;53400;50.364;14.874;2023-09-08T02:25:57;13.25;;;9.55;;
66546;SDS011;53400;50.364;14.874;2023-09-08T02:28:23;13.30;;;9.75;;
66546;SDS011;53400;50.364;14.874;2023-09-08T02:30:50;12.95;;;9.95;;
66546;SDS011;53400;50.364;14.874;2023-09-08T02:33:16;14.02;;;10.65;;
66546;SDS011;53400;50.364;14.874;2023-09-08T02:35:43;11.68;;;9.10;;
66546;SDS011;53400;50.364;14.874;2023-09-08T02:38:09;14.15;;;9.95;;
66546;SDS011;53400;50.364;14.874;2023-09-08T02:40:35;13.20;;;9.95;;
66546;SDS011;53400;50.364;14.874;2023-09-08T02:43:01;14.85;;;9.75;;
66546;SDS011;53400;50.364;14.874;2023-09-08T02:45:27;12.77;;;9.30;;
66546;SDS011;53400;50.364;14.874;2023-09-08T02:47:53;14.88;;;11.50;;
66546;SDS011;53400;50.364;14.874;2023-09-08T02:50:19;13.10;;;10.15;;
66546;SDS011;53400;50.364;14.874;2023-09-08T02:52:47;12.85;;;10.77;;
66546;SDS011;53400;50.364;14.874;2023-09-08T02:55:13;16.38;;;12.07;;
66546;SDS011;53400;50.364;14.874;2023-09-08T02:57:39;15.30;;;11.20;;
66546;SDS011;53400;50.364;14.874;2023-09-08T03:00:05;13.82;;;11.23;;
66546;SDS011;53400;50.364;14.874;2023-09-08T03:02:34;15.13;;;10.73;;
66546;SDS011;53400;50.364;14.874;2023-09-08T03:05:00;13.38;;;10.35;;
66546;SDS011;53400;50.364;14.874;2023-09-08T03:07:26;14.98;;;11.77;;
66546;SDS011;53400;50.364;14.874;2023-09-08T03:09:54;16.45;;;11.32;;
66546;SDS011;53400;50.364;14.874;2023-09-08T03:12:20;15.52;;;11.60;;
66546;SDS011;53400;50.364;14.874;2023-09-08T03:14:46;17.23;;;11.52;;
66546;SDS011;53400;50.364;14.874;2023-09-08T03:17:12;14.68;;;11.23;;
66546;SDS011;53400;50.364;14.874;2023-09-08T03:19:38;15.70;;;10.65;;
66546;SDS011;53400;50.364;14.874;2023-09-08T03:22:04;12.60;;;9.30;;
66546;SDS011;53400;50.364;14.874;2023-09-08T03:24:30;12.00;;;9.38;;
66546;SDS011;53400;50.364;14.874;2023-09-08T03:26:57;12.27;;;9.57;;
66546;SDS011;53400;50.364;14.874;2023-09-08T03:29:23;14.05;;;10.20;;
66546;SDS011;53400;50.364;14.874;2023-09-08T03:31:49;13.65;;;9.95;;
66546;SDS011;53400;50.364;14.874;2023-09-08T03:34:15;14.57;;;10.02;;
66546;SDS011;53400;50.364;14.874;2023-09-08T03:36:43;14.38;;;11.13;;
66546;SDS011;53400;50.364;14.874;2023-09-08T03:39:09;14.30;;;10.40;;
66546;SDS011;53400;50.364;14.874;2023-09-08T03:41:35;14.57;;;10.73;;
66546;SDS011;53400;50.364;14.874;2023-09-08T03:44:02;13.57;;;11.25;;
66546;SDS011;53400;50.364;14.874;2023-09-08T03:46:28;15.70;;;10.65;;
66546;SDS011;53400;50.364;14.874;2023-09-08T03:48:54;14.55;;;11.35;;
66546;SDS011;53400;50.364;14.874;2023-09-08T03:51:25;23.42;;;10.40;;
66546;SDS011;53400;50.364;14.874;2023-09-08T03:53:52;15.68;;;11.13;;
66546;SDS011;53400;50.364;14.874;2023-09-08T03:56:18;13.10;;;10.30;;
66546;SDS011;53400;50.364;14.874;2023-09-08T03:58:44;16.63;;;10.38;;
66546;SDS011;53400;50.364;14.874;2023-09-08T04:01:11;15.55;;;10.30;;
66546;SDS011;53400;50.364;14.874;2023-09-08T04:03:37;14.98;;;11.07;;
66546;SDS011;53400;50.364;14.874;2023-09-08T04:06:03;13.70;;;10.00;;
66546;SDS011;53400;50.364;14.874;2023-09-08T04:08:29;14.00;;;10.45;;
66546;SDS011;53400;50.364;14.874;2023-09-08T04:10:55;14.68;;;10.73;;
66546;SDS011;53400;50.364;14.874;2023-09-08T04:13:21;16.20;;;11.02;;
66546;SDS011;53400;50.364;14.874;2023-09-08T04:15:47;13.48;;;10.40;;
66546;SDS011;53400;50.364;14.874;2023-09-08T04:18:14;14.35;;;10.50;;
66546;SDS011;53400;50.364;14.874;2023-09-08T04:20:40;15.23;;;10.38;;
66546;SDS011;53400;50.364;14.874;2023-09-08T04:23:06;15.18;;;11.10;;
66546;SDS011;53400;50.364;14.874;2023-09-08T04:25:32;14.52;;;10.50;;
66546;SDS011;53400;50.364;14.874;2023-09-08T04:27:58;13.30;;;10.15;;
66546;SDS011;53400;50.364;14.874;2023-09-08T04:30:24;12.77;;;9.98;;
66546;SDS011;53400;50.364;14.874;2023-09-08T04:32:50;14.93;;;10.77;;
66546;SDS011;53400;50.364;14.874;2023-09-08T04:35:18;15.48;;;10.13;;
66546;SDS011;53400;50.364;14.874;2023-09-08T04:37:44;14.30;;;9.82;;
66546;SDS011;53400;50.364;14.874;2023-09-08T04:40:10;15.48;;;10.60;;
66546;SDS011;53400;50.364;14.874;2023-09-08T04:42:37;14.85;;;10.20;;
66546;SDS011;53400;50.364;14.874;2023-09-08T04:45:03;13.35;;;10.25;;
66546;SDS011;53400;50.364;14.874;2023-09-08T04:47:29;12.93;;;9.98;;
66546;SDS011;53400;50.364;14.874;2023-09-08T04:49:55;12.65;;;9.70;;
66546;SDS011;53400;50.364;14.874;2023-09-08T04:52:23;18.60;;;9.77;;
66546;SDS011;53400;50.364;14.874;2023-09-08T04:54:48;15.70;;;10.40;;
66546;SDS011;53400;50.364;14.874;2023-09-08T04:57:15;14.75;;;9.73;;
66546;SDS011;53400;50.364;14.874;2023-09-08T04:59:40;14.55;;;9.65;;
66546;SDS011;53400;50.364;14.874;2023-09-08T05:02:06;14.07;;;9.77;;
66546;SDS011;53400;50.364;14.874;2023-09-08T05:04:32;13.23;;;9.70;;
66546;SDS011;53400;50.364;14.874;2023-09-08T05:06:58;12.18;;;9.23;;
66546;SDS011;53400;50.364;14.874;2023-09-08T05:09:25;13.95;;;9.45;;
66546;SDS011;53400;50.364;14.874;2023-09-08T05:11:52;13.90;;;9.40;;
66546;SDS011;53400;50.364;14.874;2023-09-08T05:14:17;13.57;;;8.95;;
66546;SDS011;53400;50.364;14.874;2023-09-08T05:16:44;13.00;;;9.30;;
66546;SDS011;53400;50.364;14.874;2023-09-08T05:19:14;11.32;;;8.63;;
66546;SDS011;53400;50.364;14.874;2023-09-08T05:21:40;13.20;;;8.85;;
66546;SDS011;53400;50.364;14.874;2023-09-08T05:24:08;12.93;;;8.80;;
66546;SDS011;53400;50.364;14.874;2023-09-08T05:26:37;15.10;;;9.95;;
66546;SDS011;53400;50.364;14.874;2023-09-08T05:29:04;11.90;;;9.23;;
66546;SDS011;53400;50.364;14.874;2023-09-08T05:31:30;12.23;;;9.10;;
66546;SDS011;53400;50.364;14.874;2023-09-08T05:33:56;12.02;;;9.18;;
66546;SDS011;53400;50.364;14.874;2023-09-08T05:36:22;14.65;;;9.05;;
66546;SDS011;53400;50.364;14.874;2023-09-08T05:38:48;14.32;;;8.85;;
66546;SDS011;53400;50.364;14.874;2023-09-08T05:41:14;13.07;;;8.90;;
66546;SDS011;53400;50.364;14.874;2023-09-08T05:43:41;12.60;;;8.90;;
66546;SDS011;53400;50.364;14.874;2023-09-08T05:46:07;12.73;;;9.20;;
66546;SDS011;53400;50.364;14.874;2023-09-08T05:48:33;11.82;;;9.15;;
66546;SDS011;53400;50.364;14.874;2023-09-08T05:50:59;11.07;;;9.02;;
66546;SDS011;53400;50.364;14.874;2023-09-08T05:53:27;12.63;;;9.32;;
66546;SDS011;53400;50.364;14.874;2023-09-08T05:55:53;12.68;;;9.18;;
66546;SDS011;53400;50.364;14.874;2023-09-08T05:58:19;14.18;;;10.52;;
66546;SDS011;53400;50.364;14.874;2023-09-08T06:00:47;13.57;;;9.93;;
66546;SDS011;53400;50.364;14.874;2023-09-08T06:03:13;14.18;;;9.73;;
66546;SDS011;53400;50.364;14.874;2023-09-08T06:05:39;14.65;;;9.82;;
66546;SDS011;53400;50.364;14.874;2023-09-08T06:08:05;15.13;;;10.20;;
66546;SDS011;53400;50.364;14.874;2023-09-08T06:10:31;13.35;;;10.50;;
66546;SDS011;53400;50.364;14.874;2023-09-08T06:12:57;13.57;;;10.50;;
66546;SDS011;53400;50.364;14.874;2023-09-08T06:15:23;13.13;;;10.45;;
66546;SDS011;53400;50.364;14.874;2023-09-08T06:17:50;15.57;;;10.30;;
66546;SDS011;53400;50.364;14.874;2023-09-08T06:20:16;13.27;;;9.73;;
66546;SDS011;53400;50.364;14.874;2023-09-08T06:22:42;12.75;;;10.20;;
66546;SDS011;53400;50.364;14.874;2023-09-08T06:25:08;14.00;;;10.00;;
66546;SDS011;53400;50.364;14.874;2023-09-08T06:27:34;12.73;;;9.60;;
66546;SDS011;53400;50.364;14.874;2023-09-08T06:30:01;17.20;;;10.45;;
66546;SDS011;53400;50.364;14.874;2023-09-08T06:32:28;15.20;;;10.60;;
66546;SDS011;53400;50.364;14.874;2023-09-08T06:34:56;12.73;;;9.52;;
66546;SDS011;53400;50.364;14.874;2023-09-08T06:37:22;14.75;;;10.32;;
66546;SDS011;53400;50.364;14.874;2023-09-08T06:39:48;14.82;;;10.88;;
66546;SDS011;53400;50.364;14.874;2023-09-08T06:42:14;16.00;;;11.00;;
66546;SDS011;53400;50.364;14.874;2023-09-08T06:44:40;15.20;;;10.95;;
66546;SDS011;53400;50.364;14.874;2023-09-08T06:47:07;14.43;;;10.80;;
66546;SDS011;53400;50.364;14.874;2023-09-08T06:49:34;12.75;;;10.32;;
66546;SDS011;53400;50.364;14.874;2023-09-08T06:52:01;15.45;;;10.90;;
66546;SDS011;53400;50.364;14.874;2023-09-08T06:54:27;13.30;;;10.77;;
66546;SDS011;53400;50.364;14.874;2023-09-08T06:56:53;14.50;;;10.30;;
66546;SDS011;53400;50.364;14.874;2023-09-08T06:59:19;13.75;;;10.07;;
66546;SDS011;53400;50.364;14.874;2023-09-08T07:01:45;13.30;;;9.93;;
66546;SDS011;53400;50.364;14.874;2023-09-08T07:04:11;13.38;;;8.82;;
66546;SDS011;53400;50.364;14.874;2023-09-08T07:06:37;12.65;;;8.82;;
66546;SDS011;53400;50.364;14.874;2023-09-08T07:09:08;12.35;;;8.98;;
66546;SDS011;53400;50.364;14.874;2023-09-08T07:11:34;11.68;;;8.02;;
66546;SDS011;53400;50.364;14.874;2023-09-08T07:14:01;11.45;;;7.88;;
66546;SDS011;53400;50.364;14.874;2023-09-08T07:16:28;9.95;;;7.57;;
66546;SDS011;53400;50.364;14.874;2023-09-08T07:18:54;12.90;;;7.57;;
66546;SDS011;53400;50.364;14.874;2023-09-08T07:21:20;12.43;;;8.18;;
66546;SDS011;53400;50.364;14.874;2023-09-08T07:23:46;10.98;;;7.60;;
66546;SDS011;53400;50.364;14.874;2023-09-08T07:26:13;12.63;;;8.40;;
66546;SDS011;53400;50.364;14.874;2023-09-08T07:28:40;12.07;;;8.07;;
66546;SDS011;53400;50.364;14.874;2023-09-08T07:31:05;11.88;;;8.32;;
66546;SDS011;53400;50.364;14.874;2023-09-08T07:33:34;11.10;;;8.10;;
66546;SDS011;53400;50.364;14.874;2023-09-08T07:36:03;11.68;;;8.25;;
66546;SDS011;53400;50.364;14.874;2023-09-08T07:38:30;11.02;;;8.15;;
66546;SDS011;53400;50.364;14.874;2023-09-08T07:40:56;9.98;;;8.07;;
66546;SDS011;53400;50.364;14.874;2023-09-08T07:43:23;10.48;;;7.80;;
66546;SDS011;53400;50.364;14.874;2023-09-08T07:45:49;12.27;;;7.95;;
66546;SDS011;53400;50.364;14.874;2023-09-08T07:48:24;11.07;;;7.88;;
66546;SDS011;53400;50.364;14.874;2023-09-08T07:50:50;10.82;;;7.43;;
66546;SDS011;53400;50.364;14.874;2023-09-08T07:53:16;11.52;;;8.02;;
66546;SDS011;53400;50.364;14.874;2023-09-08T07:55:43;11.48;;;8.15;;
66546;SDS011;53400;50.364;14.874;2023-09-08T07:58:09;9.77;;;7.57;;
66546;SDS011;53400;50.364;14.874;2023-09-08T08:00:36;10.45;;;7.72;;
66546;SDS011;53400;50.364;14.874;2023-09-08T08:03:03;11.60;;;8.32;;
66546;SDS011;53400;50.364;14.874;2023-09-08T08:05:29;11.85;;;7.82;;
66546;SDS011;53400;50.364;14.874;2023-09-08T08:07:55;11.77;;;8.38;;
66546;SDS011;53400;50.364;14.874;2023-09-08T08:10:21;11.40;;;7.97;;
66546;SDS011;53400;50.364;14.874;2023-09-08T08:12:47;10.38;;;7.80;;
66546;SDS011;53400;50.364;14.874;2023-09-08T08:15:13;10.70;;;7.53;;
66546;SDS011;53400;50.364;14.874;2023-09-08T08:17:41;10.95;;;8.30;;
66546;SDS011;53400;50.364;14.874;2023-09-08T08:20:07;12.00;;;7.93;;
66546;SDS011;53400;50.364;14.874;2023-09-08T08:22:42;11.32;;;8.27;;
66546;SDS011;53400;50.364;14.874;2023-09-08T08:25:09;10.30;;;8.38;;
66546;SDS011;53400;50.364;14.874;2023-09-08T08:27:37;10.77;;;8.50;;
66546;SDS011;53400;50.364;14.874;2023-09-08T08:30:04;10.55;;;7.97;;
66546;SDS011;53400;50.364;14.874;2023-09-08T08:32:32;11.68;;;8.13;;
66546;SDS011;53400;50.364;14.874;2023-09-08T08:35:00;12.10;;;8.13;;
66546;SDS011;53400;50.364;14.874;2023-09-08T08:37:26;11.85;;;8.20;;
66546;SDS011;53400;50.364;14.874;2023-09-08T08:39:52;11.27;;;8.40;;
66546;SDS011;53400;50.364;14.874;2023-09-08T08:42:18;9.35;;;7.28;;
66546;SDS011;53400;50.364;14.874;2023-09-08T08:44:47;10.90;;;8.27;;
66546;SDS011;53400;50.364;14.874;2023-09-08T08:47:14;11.23;;;7.50;;
66546;SDS011;53400;50.364;14.874;2023-09-08T08:49:41;9.80;;;8.07;;
66546;SDS011;53400;50.364;14.874;2023-09-08T08:52:13;11.38;;;7.18;;
66546;SDS011;53400;50.364;14.874;2023-09-08T08:54:40;9.75;;;7.25;;
66546;SDS011;53400;50.364;14.874;2023-09-08T08:57:08;9.73;;;7.18;;
66546;SDS011;53400;50.364;14.874;2023-09-08T08:59:35;10.40;;;7.05;;
66546;SDS011;53400;50.364;14.874;2023-09-08T09:02:01;9.63;;;6.82;;
66546;SDS011;53400;50.364;14.874;2023-09-08T09:04:32;9.45;;;7.10;;
66546;SDS011;53400;50.364;14.874;2023-09-08T09:06:59;9.57;;;6.80;;
66546;SDS011;53400;50.364;14.874;2023-09-08T09:09:27;9.63;;;7.15;;
66546;SDS011;53400;50.364;14.874;2023-09-08T09:11:54;11.55;;;7.47;;
66546;SDS011;53400;50.364;14.874;2023-09-08T09:14:20;11.13;;;7.35;;
66546;SDS011;53400;50.364;14.874;2023-09-08T09:16:48;10.88;;;7.63;;
66546;SDS011;53400;50.364;14.874;2023-09-08T09:19:17;10.02;;;7.20;;
66546;SDS011;53400;50.364;14.874;2023-09-08T09:21:51;9.05;;;6.13;;
66546;SDS011;53400;50.364;14.874;2023-09-08T09:24:30;8.57;;;6.20;;
66546;SDS011;53400;50.364;14.874;2023-09-08T09:26:58;8.40;;;6.47;;
66546;SDS011;53400;50.364;14.874;2023-09-08T09:29:25;9.70;;;6.93;;
66546;SDS011;53400;50.364;14.874;2023-09-08T09:31:52;9.02;;;6.63;;
66546;SDS011;53400;50.364;14.874;2023-09-08T09:34:20;8.23;;;6.45;;
66546;SDS011;53400;50.364;14.874;2023-09-08T09:36:47;8.93;;;6.40;;
66546;SDS011;53400;50.364;14.874;2023-09-08T09:39:16;9.75;;;6.28;;
66546;SDS011;53400;50.364;14.874;2023-09-08T09:41:45;8.15;;;6.13;;
66546;SDS011;53400;50.364;14.874;2023-09-08T09:44:11;11.00;;;6.15;;
66546;SDS011;53400;50.364;14.874;2023-09-08T09:46:38;9.30;;;6.60;;
66546;SDS011;53400;50.364;14.874;2023-09-08T09:49:03;8.20;;;6.45;;
66546;SDS011;53400;50.364;14.874;2023-09-08T09:51:31;11.10;;;6.05;;
66546;SDS011;53400;50.364;14.874;2023-09-08T09:53:57;9.40;;;6.15;;
66546;SDS011;53400;50.364;14.874;2023-09-08T09:56:24;9.13;;;6.15;;
66546;SDS011;53400;50.364;14.874;2023-09-08T09:58:53;9.60;;;6.35;;
66546;SDS011;53400;50.364;14.874;2023-09-08T10:01:20;9.13;;;6.03;;
66546;SDS011;53400;50.364;14.874;2023-09-08T10:03:48;9.07;;;6.78;;
66546;SDS011;53400;50.364;14.874;2023-09-08T10:06:15;9.75;;;5.88;;
66546;SDS011;53400;50.364;14.874;2023-09-08T10:08:42;8.80;;;5.97;;
66546;SDS011;53400;50.364;14.874;2023-09-08T10:11:09;9.38;;;5.78;;
66546;SDS011;53400;50.364;14.874;2023-09-08T10:13:38;8.20;;;6.10;;
66546;SDS011;53400;50.364;14.874;2023-09-08T10:16:09;10.55;;;6.07;;
66546;SDS011;53400;50.364;14.874;2023-09-08T10:21:09;8.90;;;5.78;;
66546;SDS011;53400;50.364;14.874;2023-09-08T10:23:36;11.35;;;6.65;;
66546;SDS011;53400;50.364;14.874;2023-09-08T10:26:07;9.40;;;6.10;;
66546;SDS011;53400;50.364;14.874;2023-09-08T10:28:35;10.00;;;6.65;;
66546;SDS011;53400;50.364;14.874;2023-09-08T10:31:02;9.82;;;6.47;;
66546;SDS011;53400;50.364;14.874;2023-09-08T10:33:30;9.00;;;6.20;;
66546;SDS011;53400;50.364;14.874;2023-09-08T10:35:57;8.27;;;6.65;;
66546;SDS011;53400;50.364;14.874;2023-09-08T10:38:24;9.65;;;6.38;;
66546;SDS011;53400;50.364;14.874;2023-09-08T10:40:51;9.80;;;6.28;;
66546;SDS011;53400;50.364;14.874;2023-09-08T10:43:17;9.38;;;5.90;;
66546;SDS011;53400;50.364;14.874;2023-09-08T10:45:45;9.75;;;6.20;;
66546;SDS011;53400;50.364;14.874;2023-09-08T10:48:11;10.20;;;6.22;;
66546;SDS011;53400;50.364;14.874;2023-09-08T10:50:41;9.13;;;6.70;;
66546;SDS011;53400;50.364;14.874;2023-09-08T10:53:12;9.73;;;6.43;;
66546;SDS011;53400;50.364;14.874;2023-09-08T10:55:40;8.40;;;6.20;;
66546;SDS011;53400;50.364;14.874;2023-09-08T11:00:59;7.85;;;5.88;;
66546;SDS011;53400;50.364;14.874;2023-09-08T11:03:27;9.15;;;5.68;;
66546;SDS011;53400;50.364;14.874;2023-09-08T11:06:02;9.27;;;6.07;;
66546;SDS011;53400;50.364;14.874;2023-09-08T11:08:28;7.70;;;5.60;;
66546;SDS011;53400;50.364;14.874;2023-09-08T11:10:55;9.32;;;6.18;;
66546;SDS011;53400;50.364;14.874;2023-09-08T11:13:21;7.65;;;5.47;;
66546;SDS011;53400;50.364;14.874;2023-09-08T11:15:47;9.32;;;5.95;;
66546;SDS011;53400;50.364;14.874;2023-09-08T11:18:13;10.20;;;6.63;;
66546;SDS011;53400;50.364;14.874;2023-09-08T11:20:39;9.43;;;6.03;;
66546;SDS011;53400;50.364;14.874;2023-09-08T11:23:06;8.25;;;5.80;;
66546;SDS011;53400;50.364;14.874;2023-09-08T11:25:32;9.38;;;6.25;;
66546;SDS011;53400;50.364;14.874;2023-09-08T11:27:59;9.05;;;6.18;;
66546;SDS011;53400;50.364;14.874;2023-09-08T11:30:26;8.93;;;6.03;;
66546;SDS011;53400;50.364;14.874;2023-09-08T11:32:52;9.27;;;5.90;;
66546;SDS011;53400;50.364;14.874;2023-09-08T11:35:18;8.20;;;6.10;;
66546;SDS011;53400;50.364;14.874;2023-09-08T11:37:46;8.05;;;5.97;;
66546;SDS011;53400;50.364;14.874;2023-09-08T11:40:14;9.90;;;6.18;;
66546;SDS011;53400;50.364;14.874;2023-09-08T11:42:40;7.85;;;5.90;;
66546;SDS011;53400;50.364;14.874;2023-09-08T11:45:10;7.25;;;6.20;;
66546;SDS011;53400;50.364;14.874;2023-09-08T11:47:41;8.77;;;6.25;;
66546;SDS011;53400;50.364;14.874;2023-09-08T11:50:08;9.73;;;6.20;;
66546;SDS011;53400;50.364;14.874;2023-09-08T11:52:35;8.30;;;6.18;;
66546;SDS011;53400;50.364;14.874;2023-09-08T11:55:04;10.15;;;6.32;;
66546;SDS011;53400;50.364;14.874;2023-09-08T11:57:32;9.55;;;5.88;;
66546;SDS011;53400;50.364;14.874;2023-09-08T11:59:59;7.47;;;5.93;;
66546;SDS011;53400;50.364;14.874;2023-09-08T12:02:33;10.07;;;6.03;;
66546;SDS011;53400;50.364;14.874;2023-09-08T12:05:01;7.93;;;5.53;;
66546;SDS011;53400;50.364;14.874;2023-09-08T12:07:27;7.68;;;5.20;;
66546;SDS011;53400;50.364;14.874;2023-09-08T12:09:54;7.88;;;5.97;;
66546;SDS011;53400;50.364;14.874;2023-09-08T12:12:20;8.10;;;5.53;;
66546;SDS011;53400;50.364;14.874;2023-09-08T12:14:47;8.00;;;5.63;;
66546;SDS011;53400;50.364;14.874;2023-09-08T12:17:13;7.50;;;5.82;;
66546;SDS011;53400;50.364;14.874;2023-09-08T12:19:43;7.60;;;5.13;;
66546;SDS011;53400;50.364;14.874;2023-09-08T12:22:08;9.15;;;5.40;;
66546;SDS011;53400;50.364;14.874;2023-09-08T12:24:47;11.55;;;6.15;;
66546;SDS011;53400;50.364;14.874;2023-09-08T12:27:14;8.68;;;5.55;;
66546;SDS011;53400;50.364;14.874;2023-09-08T12:29:41;7.60;;;5.80;;
66546;SDS011;53400;50.364;14.874;2023-09-08T12:32:18;9.40;;;5.75;;
66546;SDS011;53400;50.364;14.874;2023-09-08T12:34:44;7.97;;;5.85;;
66546;SDS011;53400;50.364;14.874;2023-09-08T12:37:10;7.30;;;5.07;;
66546;SDS011;53400;50.364;14.874;2023-09-08T12:39:39;8.48;;;5.45;;
66546;SDS011;53400;50.364;14.874;2023-09-08T12:42:05;9.65;;;6.13;;
66546;SDS011;53400;50.364;14.874;2023-09-08T12:44:31;9.23;;;5.75;;
66546;SDS011;53400;50.364;14.874;2023-09-08T12:46:59;8.65;;;5.53;;
66546;SDS011;53400;50.364;14.874;2023-09-08T12:49:25;7.70;;;5.50;;
66546;SDS011;53400;50.364;14.874;2023-09-08T12:51:51;8.27;;;6.30;;
66546;SDS011;53400;50.364;14.874;2023-09-08T12:54:17;10.25;;;6.20;;
66546;SDS011;53400;50.364;14.874;2023-09-08T12:56:43;7.28;;;5.25;;
66546;SDS011;53400;50.364;14.874;2023-09-08T12:59:09;10.48;;;6.25;;
66546;SDS011;53400;50.364;14.874;2023-09-08T13:01:35;9.60;;;6.07;;
66546;SDS011;53400;50.364;14.874;2023-09-08T13:04:03;11.07;;;6.38;;
66546;SDS011;53400;50.364;14.874;2023-09-08T13:06:30;9.40;;;6.00;;
66546;SDS011;53400;50.364;14.874;2023-09-08T13:08:57;10.30;;;6.32;;
66546;SDS011;53400;50.364;14.874;2023-09-08T13:11:24;9.63;;;6.15;;
66546;SDS011;53400;50.364;14.874;2023-09-08T13:13:50;9.55;;;6.20;;
66546;SDS011;53400;50.364;14.874;2023-09-08T13:16:16;8.30;;;5.78;;
66546;SDS011;53400;50.364;14.874;2023-09-08T13:18:42;6.97;;;5.82;;
66546;SDS011;53400;50.364;14.874;2023-09-08T13:21:11;11.52;;;5.93;;
66546;SDS011;53400;50.364;14.874;2023-09-08T13:23:37;8.00;;;6.15;;
66546;SDS011;53400;50.364;14.874;2023-09-08T13:26:04;8.80;;;5.90;;
66546;SDS011;53400;50.364;14.874;2023-09-08T13:28:30;7.95;;;6.28;;
66546;SDS011;53400;50.364;14.874;2023-09-08T13:30:56;8.45;;;6.13;;
66546;SDS011;53400;50.364;14.874;2023-09-08T13:33:22;8.20;;;6.05;;
66546;SDS011;53400;50.364;14.874;2023-09-08T13:35:48;8.23;;;5.72;;
66546;SDS011;53400;50.364;14.874;2023-09-08T13:38:16;9.43;;;6.00;;
66546;SDS011;53400;50.364;14.874;2023-09-08T13:40:41;10.05;;;6.25;;
66546;SDS011;53400;50.364;14.874;2023-09-08T13:43:08;8.88;;;5.80;;
66546;SDS011;53400;50.364;14.874;2023-09-08T13:45:34;8.77;;;6.30;;
66546;SDS011;53400;50.364;14.874;2023-09-08T13:48:01;10.57;;;6.15;;
66546;SDS011;53400;50.364;14.874;2023-09-08T13:50:29;8.07;;;6.10;;
66546;SDS011;53400;50.364;14.874;2023-09-08T13:52:55;10.40;;;6.60;;
66546;SDS011;53400;50.364;14.874;2023-09-08T13:55:23;9.40;;;6.50;;
66546;SDS011;53400;50.364;14.874;2023-09-08T13:57:49;8.65;;;5.90;;
66546;SDS011;53400;50.364;14.874;2023-09-08T14:00:16;8.93;;;6.55;;
66546;SDS011;53400;50.364;14.874;2023-09-08T14:02:42;9.50;;;6.38;;
66546;SDS011;53400;50.364;14.874;2023-09-08T14:05:08;9.55;;;6.10;;
66546;SDS011;53400;50.364;14.874;2023-09-08T14:07:34;9.75;;;6.25;;
66546;SDS011;53400;50.364;14.874;2023-09-08T14:10:00;11.75;;;6.03;;
66546;SDS011;53400;50.364;14.874;2023-09-08T14:12:28;10.10;;;6.05;;
66546;SDS011;53400;50.364;14.874;2023-09-08T14:14:54;8.07;;;5.90;;
66546;SDS011;53400;50.364;14.874;2023-09-08T14:17:20;9.88;;;5.97;;
66546;SDS011;53400;50.364;14.874;2023-09-08T14:19:46;9.50;;;5.43;;
66546;SDS011;53400;50.364;14.874;2023-09-08T14:22:12;7.95;;;5.85;;
66546;SDS011;53400;50.364;14.874;2023-09-08T14:24:38;9.55;;;6.15;;
66546;SDS011;53400;50.364;14.874;2023-09-08T14:27:04;9.10;;;6.43;;